Terminal Aerodrome Forecast
Issued by NWS

Home | Current Version | Previous Version | Graphics & Text | Print | Product List | Glossary On
Versions: 1 2 3 4 5 6 7 8 9 10 11 12 13 14 15 16 17 18 19
000
FTUS43 KGRB 202333
TAFRHI
TAF
KRHI 202333Z 2100/2124 09011G19KT 4SM -RA BR OVC020
      TEMPO 2100/2102 2SM -RADZ BR BKN008 OVC015
     FM210200 10010G21KT 4SM -RADZ BR OVC008
     FM210600 12006KT 5SM -DZ OVC003
      TEMPO 2109/2113 3SM -SHRA
     FM211600 19006KT 6SM -DZ BR VCSH OVC005
     FM212100 24009KT P6SM VCSH OVC012=

USA.gov is the U.S. government's official web portal to all federal, state and local government web resources and services.